Terminal Aerodrome Forecast
Issued by NWS

Home | Current Version | Previous Version | Graphics & Text | Print | Product List | Glossary On
Versions: 1 2 3 4 5 6 7 8 9 10 11 12 13 14 15
000
FTUS43 KGRB 241137
TAFRHI
TAF
KRHI 241137Z 2412/2512 VRB03KT P6SM FEW100 WS012/20030KT
     FM241600 18007KT P6SM FEW050 SCT100
     FM250300 VRB03KT P6SM SCT100 SCT200 WS010/21030KT=

USA.gov is the U.S. government's official web portal to all federal, state and local government web resources and services.